createdAt,value
2023-03-16T00:00:47.272Z,92947.00
2023-03-16T00:01:47.433Z,92947.00
2023-03-16T00:02:47.426Z,92947.00
2023-03-16T00:03:47.464Z,92947.00
2023-03-16T00:04:47.559Z,92945.00
2023-03-16T00:05:47.639Z,92945.00
2023-03-16T00:06:47.703Z,92943.00
2023-03-16T00:07:47.776Z,92943.00
2023-03-16T00:08:47.912Z,92943.00
2023-03-16T00:09:47.954Z,92943.00
2023-03-16T00:10:48.016Z,92945.00
2023-03-16T00:11:48.073Z,92945.00
2023-03-16T00:13:48.242Z,92941.00
2023-03-16T00:14:48.344Z,92943.00
2023-03-16T00:15:48.385Z,92943.00
2023-03-16T00:16:48.506Z,92945.00
2023-03-16T00:17:48.511Z,92945.00
2023-03-16T00:18:48.588Z,92947.00
2023-03-16T00:19:49.204Z,92947.00
2023-03-16T00:20:48.736Z,92949.00
2023-03-16T00:21:48.815Z,92951.00
2023-03-16T00:22:49.703Z,92951.00
2023-03-16T00:23:48.977Z,92951.00
2023-03-16T00:45:50.680Z,92955.00
2023-03-16T00:46:50.708Z,92955.00
2023-03-16T00:47:50.782Z,92957.00
2023-03-16T00:48:50.865Z,92955.00
2023-03-16T00:49:51.701Z,92955.00
2023-03-16T00:50:51.215Z,92953.00
2023-03-16T00:51:51.105Z,92955.00
2023-03-16T00:52:51.183Z,92953.00
2023-03-16T00:53:51.267Z,92949.00
2023-03-16T00:54:51.347Z,92947.00
2023-03-16T00:55:51.403Z,92945.00
2023-03-16T00:56:51.498Z,92943.00
2023-03-16T00:57:51.600Z,92945.00
2023-03-16T00:58:51.723Z,92945.00
2023-03-16T00:59:51.724Z,92945.00
2023-03-16T01:00:51.837Z,92941.00
2023-03-16T01:01:51.883Z,92940.00
2023-03-16T01:02:51.998Z,92940.00
2023-03-16T01:03:52.056Z,92941.00
2023-03-16T01:04:52.712Z,92938.00
2023-03-16T01:05:52.208Z,92936.00
2023-03-16T01:06:52.293Z,92934.00
2023-03-16T01:07:52.725Z,92934.00
2023-03-16T01:08:52.478Z,92932.00
2023-03-16T01:09:52.521Z,92928.00
2023-03-16T01:10:52.603Z,92928.00
2023-03-16T02:02:56.875Z,92920.00
2023-03-16T02:03:56.997Z,92920.00
2023-03-16T02:04:57.041Z,92918.00
2023-03-16T02:05:57.118Z,92920.00
2023-03-16T02:06:57.191Z,92918.00
2023-03-16T02:07:57.275Z,92914.00
2023-03-16T02:08:57.361Z,92914.00
2023-03-16T02:09:57.527Z,92916.00
2023-03-16T02:10:57.574Z,92914.00
2023-03-16T02:11:57.613Z,92916.00
2023-03-16T02:12:57.701Z,92918.00
2023-03-16T02:13:57.798Z,92914.00
2023-03-16T02:14:57.853Z,92918.00
2023-03-16T02:15:57.978Z,92918.00
2023-03-16T02:16:58.726Z,92920.00
2023-03-16T02:17:58.130Z,92922.00
2023-03-16T02:18:58.214Z,92920.00
2023-03-16T02:19:58.300Z,92922.00
2023-03-16T02:20:58.390Z,92926.00
2023-03-16T02:21:58.472Z,92926.00
2023-03-16T02:22:58.632Z,92928.00
2023-03-16T02:23:58.641Z,92928.00
2023-03-16T02:24:59.238Z,92932.00
2023-03-16T02:25:58.811Z,92928.00
2023-03-16T02:26:58.887Z,92926.00
2023-03-16T02:27:58.988Z,92926.00
2023-03-16T02:28:59.065Z,92928.00
2023-03-16T02:29:59.152Z,92922.00
2023-03-16T02:30:59.271Z,92922.00
2023-03-16T02:31:59.331Z,92924.00
2023-03-16T02:32:59.503Z,92926.00
2023-03-16T02:33:59.520Z,92924.00
2023-03-16T02:34:59.596Z,92926.00
2023-03-16T02:35:59.759Z,92926.00
2023-03-16T02:36:59.776Z,92928.00
2023-03-16T02:37:59.934Z,92926.00
2023-03-16T02:38:59.938Z,92930.00
2023-03-16T02:40:00.029Z,92928.00
2023-03-16T02:41:00.131Z,92926.00
2023-03-16T02:42:00.192Z,92928.00
2023-03-16T02:43:00.269Z,92926.00
2023-03-16T02:44:00.357Z,92930.00
2023-03-16T02:45:00.465Z,92928.00
2023-03-16T02:46:00.558Z,92930.00
2023-03-16T02:47:00.617Z,92932.00
2023-03-16T02:48:00.701Z,92930.00
2023-03-16T02:49:00.808Z,92930.00
2023-03-16T02:50:00.854Z,92932.00
2023-03-16T02:51:00.939Z,92932.00
2023-03-16T02:52:01.031Z,92932.00
2023-03-16T02:53:01.241Z,92936.00
2023-03-16T02:54:01.188Z,92940.00
2023-03-16T02:55:01.259Z,92940.00
2023-03-16T02:56:01.335Z,92940.00
2023-03-16T02:57:01.477Z,92940.00
2023-03-16T02:58:01.499Z,92941.00
2023-03-16T02:59:01.572Z,92938.00
2023-03-16T03:00:01.634Z,92940.00
2023-03-16T03:01:01.709Z,92941.00
2023-03-16T03:02:01.794Z,92943.00
2023-03-16T03:03:01.923Z,92945.00
2023-03-16T03:04:01.936Z,92943.00
2023-03-16T03:05:02.013Z,92943.00
2023-03-16T03:06:02.161Z,92943.00
2023-03-16T03:07:02.743Z,92945.00
2023-03-16T03:08:02.312Z,92945.00
2023-03-16T03:09:02.323Z,92945.00
2023-03-16T03:10:02.417Z,92947.00
2023-03-16T03:11:02.494Z,92945.00
2023-03-16T03:12:02.570Z,92943.00
2023-03-16T03:13:02.646Z,92943.00
2023-03-16T03:14:02.722Z,92941.00
2023-03-16T03:15:02.874Z,92943.00
2023-03-16T03:16:02.959Z,92941.00
2023-03-16T03:17:03.735Z,92941.00
2023-03-16T03:18:03.027Z,92943.00
2023-03-16T03:19:03.112Z,92940.00
2023-03-16T03:20:03.183Z,92938.00
2023-03-16T03:21:03.259Z,92938.00
2023-03-16T03:22:03.344Z,92936.00
2023-03-16T03:23:03.424Z,92940.00
2023-03-16T03:24:03.488Z,92940.00
2023-03-16T03:25:03.566Z,92938.00
2023-03-16T03:26:03.632Z,92943.00
2023-03-16T03:27:03.771Z,92943.00
2023-03-16T03:28:03.839Z,92941.00
2023-03-16T03:29:03.864Z,92943.00
2023-03-16T03:30:03.941Z,92941.00
2023-03-16T03:31:04.024Z,92940.00
2023-03-16T03:32:04.771Z,92940.00
2023-03-16T03:33:04.279Z,92940.00
2023-03-16T03:34:04.258Z,92943.00
2023-03-16T03:35:04.323Z,92945.00
2023-03-16T03:36:04.453Z,92945.00
2023-03-16T03:37:04.488Z,92947.00
2023-03-16T03:38:04.578Z,92945.00
2023-03-16T03:39:04.651Z,92947.00
2023-03-16T03:40:04.744Z,92945.00
2023-03-16T03:41:04.808Z,92943.00
2023-03-16T03:42:04.880Z,92941.00
2023-03-16T03:43:04.969Z,92943.00
2023-03-16T03:44:05.061Z,92943.00
2023-03-16T03:45:05.130Z,92945.00
2023-03-16T03:46:05.501Z,92945.00
2023-03-16T03:47:05.298Z,92940.00
2023-03-16T03:48:05.352Z,92943.00
2023-03-16T03:49:05.425Z,92945.00
2023-03-16T03:50:05.506Z,92943.00
2023-03-16T03:51:05.668Z,92943.00
2023-03-16T03:52:05.675Z,92947.00
2023-03-16T03:53:05.774Z,92945.00
2023-03-16T03:54:05.836Z,92947.00
2023-03-16T03:55:05.941Z,92945.00
2023-03-16T03:56:05.991Z,92945.00
2023-03-16T03:57:06.101Z,92947.00
2023-03-16T03:58:06.232Z,92949.00
2023-03-16T03:59:06.306Z,92953.00
2023-03-16T04:00:06.309Z,92949.00
2023-03-16T04:01:06.389Z,92953.00
2023-03-16T04:02:06.559Z,92949.00
2023-03-16T04:03:06.720Z,92955.00
2023-03-16T04:04:06.627Z,92955.00
2023-03-16T04:05:06.694Z,92955.00
2023-03-16T04:06:07.756Z,92955.00
2023-03-16T04:07:06.857Z,92955.00
2023-03-16T04:08:06.954Z,92955.00
2023-03-16T04:09:07.019Z,92959.00
2023-03-16T04:10:07.763Z,92959.00
2023-03-16T04:11:07.239Z,92959.00
2023-03-16T04:12:07.263Z,92957.00
2023-03-16T04:13:07.421Z,92957.00
2023-03-16T04:14:07.432Z,92957.00
2023-03-16T04:15:07.521Z,92959.00
2023-03-16T04:16:07.577Z,92957.00
2023-03-16T04:17:07.666Z,92961.00
2023-03-16T04:18:07.740Z,92959.00
2023-03-16T04:19:07.828Z,92959.00
2023-03-16T04:20:07.896Z,92957.00
2023-03-16T04:21:07.994Z,92957.00
2023-03-16T04:22:08.069Z,92957.00
2023-03-16T04:23:08.163Z,92953.00
2023-03-16T04:24:08.245Z,92953.00
2023-03-16T04:25:09.348Z,92953.00
2023-03-16T04:26:08.340Z,92951.00
2023-03-16T04:27:08.370Z,92947.00
2023-03-16T04:28:08.399Z,92947.00
2023-03-16T04:29:08.428Z,92947.00
2023-03-16T04:30:08.452Z,92941.00
2023-03-16T04:31:08.836Z,92945.00
2023-03-16T04:32:08.574Z,92947.00
2023-03-16T04:33:08.647Z,92947.00
2023-03-16T04:34:08.554Z,92945.00
2023-03-16T04:35:08.562Z,92943.00
2023-03-16T04:36:08.612Z,92945.00
2023-03-16T04:37:08.613Z,92941.00
2023-03-16T04:38:08.619Z,92941.00
2023-03-16T04:39:08.647Z,92940.00
2023-03-16T04:40:10.802Z,92940.00
2023-03-16T04:41:08.702Z,92938.00
2023-03-16T04:42:08.778Z,92941.00
2023-03-16T04:43:08.731Z,92938.00
2023-03-16T04:44:08.819Z,92938.00
2023-03-16T04:45:08.887Z,92938.00
2023-03-16T04:46:09.005Z,92936.00
2023-03-16T04:47:09.037Z,92934.00
2023-03-16T04:48:09.121Z,92934.00
2023-03-16T04:49:09.220Z,92936.00
2023-03-16T04:50:09.293Z,92936.00
2023-03-16T04:51:09.390Z,92936.00
2023-03-16T04:52:09.468Z,92936.00
2023-03-16T04:53:09.564Z,92934.00
2023-03-16T04:54:09.626Z,92930.00
2023-03-16T04:55:09.723Z,92932.00
2023-03-16T04:56:09.803Z,92930.00
2023-03-16T04:57:09.892Z,92930.00
2023-03-16T04:58:09.982Z,92928.00
2023-03-16T04:59:10.068Z,92928.00
2023-03-16T05:00:10.162Z,92924.00
2023-03-16T05:01:10.355Z,92924.00
2023-03-16T05:02:10.330Z,92926.00
2023-03-16T05:03:10.436Z,92926.00
2023-03-16T05:04:17.156Z,92928.00
2023-03-16T05:05:11.548Z,92928.00
2023-03-16T05:06:10.550Z,92930.00
2023-03-16T05:07:10.574Z,92928.00
2023-03-16T05:08:10.597Z,92928.00
2023-03-16T05:09:10.626Z,92930.00
2023-03-16T05:10:10.650Z,92928.00
2023-03-16T05:11:10.662Z,92930.00
2023-03-16T05:12:10.672Z,92928.00
2023-03-16T05:13:11.275Z,92930.00
2023-03-16T05:14:10.729Z,92930.00
2023-03-16T05:15:10.829Z,92932.00
2023-03-16T05:16:10.940Z,92934.00
2023-03-16T05:17:10.974Z,92936.00
2023-03-16T05:18:11.069Z,92936.00
2023-03-16T05:19:11.156Z,92936.00
2023-03-16T05:20:11.251Z,92938.00
2023-03-16T05:21:11.325Z,92940.00
2023-03-16T05:22:11.400Z,92941.00
2023-03-16T05:23:12.334Z,92941.00
2023-03-16T05:24:11.570Z,92940.00
2023-03-16T05:25:11.674Z,92938.00
2023-03-16T05:26:11.747Z,92936.00
2023-03-16T05:27:11.835Z,92934.00
2023-03-16T05:28:11.915Z,92936.00
2023-03-16T05:29:11.997Z,92940.00
2023-03-16T05:30:12.078Z,92938.00
2023-03-16T05:31:12.256Z,92938.00
2023-03-16T05:32:12.254Z,92943.00
2023-03-16T05:33:12.337Z,92941.00
2023-03-16T05:34:12.425Z,92943.00
2023-03-16T05:35:12.512Z,92941.00
2023-03-16T05:36:12.620Z,92941.00
2023-03-16T05:37:12.738Z,92940.00
2023-03-16T05:38:12.761Z,92938.00
2023-03-16T05:39:12.856Z,92938.00
2023-03-16T05:40:12.935Z,92938.00
2023-03-16T05:41:13.032Z,92940.00
2023-03-16T05:42:13.113Z,92941.00
2023-03-16T05:43:13.182Z,92940.00
2023-03-16T05:44:13.268Z,92941.00
2023-03-16T12:47:40.667Z,92578.00
2023-03-16T13:15:40.684Z,92550.00
2023-03-16T13:34:40.640Z,92535.00
2023-03-16T13:35:40.646Z,92535.00
2023-03-16T13:36:40.636Z,92531.00
2023-03-16T13:37:40.635Z,92531.00
2023-03-16T13:38:40.650Z,92529.00
2023-03-16T13:39:41.187Z,92529.00
2023-03-16T13:40:41.192Z,92525.00
2023-03-16T13:41:42.908Z,92529.00
2023-03-16T13:42:40.617Z,92527.00
2023-03-16T14:31:40.685Z,92513.00
2023-03-16T14:32:40.733Z,92511.00
2023-03-16T14:33:40.727Z,92507.00
2023-03-16T14:34:40.743Z,92507.00
2023-03-16T14:35:40.805Z,92509.00
2023-03-16T14:36:40.760Z,92505.00
2023-03-16T14:37:40.764Z,92503.00
2023-03-16T14:38:40.790Z,92505.00
2023-03-16T14:39:40.783Z,92507.00
2023-03-16T14:40:40.818Z,92505.00
2023-03-16T14:41:40.835Z,92505.00
2023-03-16T14:42:40.841Z,92503.00
2023-03-16T14:43:40.851Z,92505.00
2023-03-16T14:44:40.866Z,92499.00
2023-03-16T14:45:40.883Z,92499.00
2023-03-16T14:46:40.983Z,92499.00
2023-03-16T14:47:40.913Z,92499.00
2023-03-16T14:48:40.927Z,92499.00
2023-03-16T14:49:43.232Z,92499.00
2023-03-16T14:50:40.964Z,92503.00
2023-03-16T14:51:40.980Z,92503.00
2023-03-16T14:52:41.056Z,92503.00
2023-03-16T14:53:40.995Z,92505.00
2023-03-16T14:54:41.012Z,92507.00
2023-03-16T14:55:41.115Z,92505.00
2023-03-16T14:56:41.122Z,92503.00
2023-03-16T14:57:41.134Z,92501.00
2023-03-16T14:58:41.180Z,92505.00
2023-03-16T14:59:41.174Z,92505.00
2023-03-16T15:00:52.255Z,92503.00
2023-03-16T15:01:42.210Z,92505.00
2023-03-16T15:02:41.194Z,92507.00
2023-03-16T15:03:41.206Z,92511.00
2023-03-16T15:04:41.185Z,92509.00
2023-03-16T15:05:41.780Z,92507.00
2023-03-16T15:06:41.111Z,92509.00
2023-03-16T15:07:41.112Z,92509.00
2023-03-16T15:08:41.186Z,92507.00
2023-03-16T15:09:41.077Z,92505.00
2023-03-16T15:10:41.077Z,92509.00
2023-03-16T15:11:41.048Z,92505.00
2023-03-16T15:12:41.048Z,92503.00
2023-03-16T15:13:41.041Z,92505.00
2023-03-16T15:14:41.039Z,92503.00
2023-03-16T15:15:41.160Z,92509.00
2023-03-16T15:16:41.026Z,92509.00
2023-03-16T15:17:41.002Z,92507.00
2023-03-16T15:18:40.988Z,92507.00
2023-03-16T15:19:40.980Z,92503.00
2023-03-16T15:20:40.965Z,92503.00
2023-03-16T15:21:40.945Z,92501.00
2023-03-16T15:22:40.938Z,92505.00
2023-03-16T15:23:40.938Z,92505.00
2023-03-16T15:24:40.951Z,92505.00
2023-03-16T15:25:40.983Z,92509.00
2023-03-16T15:26:41.008Z,92511.00
2023-03-16T15:27:41.019Z,92511.00
2023-03-16T15:28:41.058Z,92515.00
2023-03-16T15:29:41.058Z,92515.00
2023-03-16T15:30:41.079Z,92515.00
2023-03-16T15:31:41.139Z,92515.00
2023-03-16T15:32:41.152Z,92513.00
2023-03-16T15:33:41.147Z,92517.00
2023-03-16T15:34:41.177Z,92515.00
2023-03-16T15:35:41.249Z,92517.00
2023-03-16T15:36:41.223Z,92517.00
2023-03-16T15:37:41.227Z,92517.00
2023-03-16T15:38:41.257Z,92515.00
2023-03-16T15:39:41.279Z,92513.00
2023-03-16T15:40:41.302Z,92515.00
2023-03-16T15:41:47.461Z,92513.00
2023-03-16T15:42:42.304Z,92515.00
2023-03-16T15:43:41.285Z,92515.00
2023-03-16T15:44:41.289Z,92519.00
2023-03-16T15:45:41.265Z,92519.00
2023-03-16T15:46:41.255Z,92519.00
2023-03-16T15:47:41.251Z,92521.00
2023-03-16T15:48:41.227Z,92521.00
2023-03-16T15:49:47.717Z,92517.00
2023-03-16T15:50:42.226Z,92519.00
2023-03-16T15:51:41.206Z,92523.00
2023-03-16T15:52:41.192Z,92523.00
2023-03-16T15:57:41.198Z,92521.00
2023-03-16T16:23:41.682Z,92523.00
2023-03-16T16:27:41.835Z,92527.00
2023-03-16T19:12:50.642Z,92773.00
2023-03-16T19:13:50.689Z,92775.00
2023-03-16T19:14:50.724Z,92775.00
2023-03-16T19:15:50.763Z,92771.00
2023-03-16T19:16:50.826Z,92773.00
2023-03-16T19:17:50.910Z,92773.00
2023-03-16T19:18:50.939Z,92773.00
2023-03-16T19:19:50.961Z,92773.00
2023-03-16T19:20:51.026Z,92773.00
2023-03-16T19:21:51.033Z,92777.00
2023-03-16T19:22:51.063Z,92779.00
2023-03-16T19:23:51.145Z,92781.00
2023-03-16T19:24:51.185Z,92783.00
2023-03-16T19:25:51.243Z,92783.00
2023-03-16T22:44:01.412Z,92834.00
2023-03-16T22:48:00.628Z,92830.00
2023-03-16T22:49:00.644Z,92830.00
2023-03-16T22:50:00.683Z,92834.00
2023-03-16T22:51:00.672Z,92822.00
2023-03-16T22:52:00.673Z,92826.00
2023-03-16T22:53:00.695Z,92824.00
2023-03-16T22:54:00.703Z,92824.00
2023-03-16T22:55:00.754Z,92826.00
2023-03-16T22:56:00.769Z,92828.00
2023-03-16T22:57:00.797Z,92826.00
2023-03-16T22:58:00.805Z,92826.00
2023-03-16T22:59:00.831Z,92830.00
2023-03-16T23:00:01.070Z,92834.00
2023-03-16T23:01:00.915Z,92830.00
2023-03-16T23:02:00.916Z,92836.00
2023-03-16T23:03:00.985Z,92832.00
2023-03-16T23:04:01.034Z,92828.00
2023-03-16T23:05:01.114Z,92826.00
2023-03-16T23:06:01.127Z,92838.00
2023-03-16T23:07:01.136Z,92834.00
2023-03-16T23:08:01.164Z,92830.00
2023-03-16T23:09:01.208Z,92824.00
2023-03-16T23:10:01.252Z,92824.00
2023-03-16T23:11:01.271Z,92822.00
2023-03-16T23:12:01.343Z,92820.00
2023-03-16T23:13:01.328Z,92822.00
2023-03-16T23:14:01.359Z,92826.00
2023-03-16T23:15:01.397Z,92822.00
2023-03-16T23:16:01.449Z,92826.00
2023-03-16T23:17:01.511Z,92828.00
2023-03-16T23:18:01.541Z,92828.00
2023-03-16T23:19:02.326Z,92822.00
2023-03-16T23:20:01.620Z,92818.00
2023-03-16T23:21:01.640Z,92818.00
2023-03-16T23:22:01.658Z,92816.00
2023-03-16T23:23:02.373Z,92818.00
2023-03-16T23:24:04.336Z,92814.00
2023-03-16T23:25:01.726Z,92816.00
2023-03-16T23:26:01.727Z,92822.00
2023-03-16T23:27:01.867Z,92820.00
2023-03-16T23:28:01.734Z,92816.00
2023-03-16T23:29:01.739Z,92820.00
2023-03-16T23:30:01.721Z,92816.00
2023-03-16T23:31:01.743Z,92814.00
2023-03-16T23:32:01.777Z,92814.00
2023-03-16T23:33:01.842Z,92814.00
2023-03-16T23:34:01.724Z,92816.00
2023-03-16T23:35:01.808Z,92814.00
2023-03-16T23:36:01.760Z,92814.00
2023-03-16T23:37:01.723Z,92818.00
2023-03-16T23:38:01.741Z,92814.00
2023-03-16T23:39:01.727Z,92812.00
2023-03-16T23:40:01.741Z,92812.00
2023-03-16T23:41:02.357Z,92809.00
2023-03-16T23:42:01.728Z,92812.00
2023-03-16T23:57:01.666Z,92809.00
2023-03-16T23:58:01.682Z,92809.00
2023-03-16T23:59:01.677Z,92812.00
